Time;durP1;ratioP1;P1;durP2;ratioP2;P2;SDS_P1;SDS_P2;PMS_P1;PMS_P2;Temp;Humidity;BMP_temperature;BMP_pressure;BME280_temperature;BME280_humidity;BME280_pressure;Samples;Min_cycle;Max_cycle;Signal;HPM_P1;HPM_P2
2022/03/01 00:01:09;;;;;;;24.83;8.65;;;0.10;99.90;;;;;;5027318;28;20474;-71
2022/03/01 00:03:35;;;;;;;28.10;9.30;;;0.10;99.90;;;;;;5033178;28;20037;-71
2022/03/01 00:06:01;;;;;;;34.10;9.82;;;0.00;99.90;;;;;;5019077;28;20179;-71
2022/03/01 00:08:27;;;;;;;28.58;9.23;;;0.00;99.90;;;;;;5047861;28;20782;-70
2022/03/01 00:10:52;;;;;;;30.40;8.70;;;0.00;99.90;;;;;;5019378;28;20053;-71
2022/03/01 00:13:18;;;;;;;28.80;9.35;;;0.00;99.90;;;;;;5023387;28;20104;-71
2022/03/01 00:15:44;;;;;;;25.88;9.07;;;0.00;99.90;;;;;;5024301;28;20025;-71
2022/03/01 00:18:09;;;;;;;29.17;9.23;;;0.00;99.90;;;;;;5027243;28;20038;-71
2022/03/01 00:20:35;;;;;;;25.08;8.80;;;-0.10;99.90;;;;;;5027606;28;20095;-72
2022/03/01 00:23:01;;;;;;;29.08;9.60;;;-0.10;99.90;;;;;;5021112;28;20058;-71
2022/03/01 00:25:26;;;;;;;26.38;9.35;;;0.00;99.90;;;;;;5028012;28;20065;-69
2022/03/01 00:27:52;;;;;;;32.17;9.48;;;-0.10;99.90;;;;;;5034360;28;20050;-72
2022/03/01 00:30:18;;;;;;;24.77;8.75;;;-0.10;99.90;;;;;;5024329;28;20379;-72
2022/03/01 00:32:43;;;;;;;24.48;8.70;;;-0.10;99.90;;;;;;5025528;28;20605;-72
2022/03/01 00:35:09;;;;;;;27.27;8.95;;;-0.10;99.90;;;;;;5028282;28;20033;-72
2022/03/01 00:37:35;;;;;;;24.73;9.23;;;-0.20;99.90;;;;;;5027161;28;20104;-73
2022/03/01 00:40:00;;;;;;;31.52;9.20;;;-0.20;99.90;;;;;;5027742;28;20069;-72
2022/03/01 00:42:26;;;;;;;30.65;9.93;;;-0.20;99.90;;;;;;5018122;28;20053;-70
2022/03/01 00:44:52;;;;;;;25.27;9.10;;;-0.20;99.90;;;;;;5025876;28;20064;-71
2022/03/01 00:47:17;;;;;;;28.90;9.27;;;-0.20;99.90;;;;;;5017043;28;20033;-73
2022/03/01 00:49:43;;;;;;;30.00;9.30;;;-0.20;99.90;;;;;;5027594;28;20029;-72
2022/03/01 00:52:08;;;;;;;32.13;10.00;;;-0.20;99.90;;;;;;5027853;28;20051;-72
2022/03/01 00:54:34;;;;;;;29.35;9.13;;;-0.20;99.90;;;;;;5027792;28;20095;-72
2022/03/01 00:57:00;;;;;;;25.10;8.23;;;-0.20;99.90;;;;;;5040560;28;20507;-71
2022/03/01 00:59:25;;;;;;;31.73;9.63;;;-0.20;99.90;;;;;;5035899;28;20037;-70
2022/03/01 01:01:51;;;;;;;27.00;8.57;;;-0.20;99.90;;;;;;5021716;28;20064;-71
2022/03/01 01:04:17;;;;;;;26.92;8.45;;;-0.20;99.90;;;;;;5049304;28;20712;-71
2022/03/01 01:06:42;;;;;;;26.10;9.27;;;-0.30;99.90;;;;;;5026998;28;20032;-72
2022/03/01 01:09:12;;;;;;;26.20;8.55;;;-0.30;99.90;;;;;;5032023;28;20075;-71
2022/03/01 01:11:38;;;;;;;27.42;8.88;;;-0.40;99.90;;;;;;5026237;28;20049;-72
2022/03/01 01:14:04;;;;;;;27.52;8.68;;;-0.40;99.90;;;;;;5031303;28;20449;-71
2022/03/01 01:16:30;;;;;;;24.10;8.32;;;-0.40;99.90;;;;;;5033724;28;20076;-69
2022/03/01 01:18:55;;;;;;;27.75;9.25;;;-0.40;99.90;;;;;;5051196;28;20445;-71
2022/03/01 01:21:21;;;;;;;26.83;8.48;;;-0.50;99.90;;;;;;5027677;28;20454;-71
2022/03/01 01:23:47;;;;;;;23.75;8.35;;;-0.50;99.90;;;;;;5031518;28;20061;-72
2022/03/01 01:26:13;;;;;;;28.67;9.10;;;-0.60;99.90;;;;;;5034483;28;20034;-71
2022/03/01 01:28:39;;;;;;;29.15;9.65;;;-0.60;99.90;;;;;;5030643;28;20068;-71
2022/03/01 01:31:05;;;;;;;26.27;9.55;;;-0.70;99.90;;;;;;5024752;28;20136;-72
2022/03/01 01:33:30;;;;;;;26.65;9.13;;;-0.70;99.90;;;;;;5033054;28;20041;-69
2022/03/01 01:35:56;;;;;;;27.38;8.60;;;-0.70;99.90;;;;;;5037412;28;20030;-72
2022/03/01 01:38:22;;;;;;;26.23;8.40;;;-0.70;99.90;;;;;;5031117;28;20447;-71
2022/03/01 01:40:48;;;;;;;25.40;9.13;;;-0.70;99.90;;;;;;5025274;28;20029;-71
2022/03/01 01:43:14;;;;;;;24.75;8.90;;;-0.80;99.90;;;;;;5050346;28;20083;-71
2022/03/01 01:45:39;;;;;;;26.10;8.63;;;-0.80;99.90;;;;;;5033682;28;20033;-72
2022/03/01 01:48:05;;;;;;;31.75;9.82;;;-0.80;99.90;;;;;;5039730;28;20027;-72
2022/03/01 01:50:32;;;;;;;25.90;9.02;;;-0.90;99.90;;;;;;5032380;28;20124;-70
2022/03/01 01:52:59;;;;;;;29.67;9.80;;;-0.90;99.90;;;;;;5029218;28;20064;-73
2022/03/01 01:55:26;;;;;;;27.67;9.10;;;-0.90;99.90;;;;;;5025065;28;20080;-73
2022/03/01 01:57:52;;;;;;;27.42;9.10;;;-1.00;99.90;;;;;;5037039;28;20877;-72
2022/03/01 02:00:18;;;;;;;24.70;8.25;;;-1.10;99.90;;;;;;5031848;28;20032;-72
2022/03/01 02:02:45;;;;;;;31.55;9.02;;;-1.10;99.90;;;;;;5037761;28;20142;-73
2022/03/01 02:05:11;;;;;;;26.65;8.82;;;-1.10;99.90;;;;;;5046497;28;20025;-71
2022/03/01 02:07:43;;;;;;;24.60;8.82;;;-1.10;99.90;;;;;;5025544;28;20033;-73
2022/03/01 02:10:09;;;;;;;25.83;8.85;;;-1.10;99.90;;;;;;5031296;28;20029;-72
2022/03/01 02:12:34;;;;;;;27.65;9.00;;;-1.10;99.90;;;;;;5023450;28;20036;-72
2022/03/01 02:15:00;;;;;;;27.05;9.20;;;-1.20;99.90;;;;;;5020723;28;20045;-73
2022/03/01 02:17:27;;;;;;;28.58;10.13;;;-1.20;99.90;;;;;;5030036;28;20036;-73
2022/03/01 02:19:53;;;;;;;32.63;9.75;;;-1.40;99.90;;;;;;5027589;28;20184;-71
2022/03/01 02:22:19;;;;;;;33.30;9.50;;;-1.40;99.90;;;;;;5024618;28;20538;-73
2022/03/01 02:24:45;;;;;;;27.38;9.13;;;-1.40;99.90;;;;;;5009596;28;20022;-73
2022/03/01 02:27:11;;;;;;;28.95;9.27;;;-1.50;99.90;;;;;;5031985;28;20478;-72
2022/03/01 02:29:36;;;;;;;30.38;10.02;;;-1.50;99.90;;;;;;5029592;28;20166;-72
2022/03/01 02:32:06;;;;;;;34.47;10.10;;;-1.60;99.90;;;;;;5030665;28;20083;-72
2022/03/01 02:34:32;;;;;;;29.67;9.88;;;-1.60;99.90;;;;;;5028804;28;20056;-70
2022/03/01 02:36:58;;;;;;;27.40;9.32;;;-1.60;99.90;;;;;;5027961;28;20037;-73
2022/03/01 02:39:24;;;;;;;26.45;8.98;;;-1.60;99.90;;;;;;5023974;28;20455;-73
2022/03/01 02:41:50;;;;;;;32.60;9.48;;;-1.60;99.90;;;;;;5033339;28;20393;-73
2022/03/01 02:44:15;;;;;;;28.05;9.38;;;-1.60;99.90;;;;;;5046126;28;20029;-72
2022/03/01 02:46:42;;;;;;;29.90;10.32;;;-1.60;99.90;;;;;;5033488;28;20036;-73
2022/03/01 02:49:09;;;;;;;27.95;9.52;;;-1.60;99.90;;;;;;5031958;28;20120;-72
2022/03/01 02:51:35;;;;;;;32.10;10.15;;;-1.50;99.90;;;;;;5024049;28;20375;-70
2022/03/01 02:54:01;;;;;;;26.55;8.95;;;-1.60;99.90;;;;;;5029085;28;20064;-72
2022/03/01 02:56:27;;;;;;;32.20;10.23;;;-1.80;99.90;;;;;;5030558;28;20029;-73
2022/03/01 02:58:55;;;;;;;27.70;9.90;;;-1.90;99.90;;;;;;5035489;28;20626;-72
2022/03/01 03:01:22;;;;;;;28.33;9.82;;;-1.90;99.90;;;;;;5027566;28;20120;-73
2022/03/01 03:03:48;;;;;;;31.20;9.52;;;-2.00;99.90;;;;;;5028378;28;20033;-73
2022/03/01 03:06:15;;;;;;;27.40;9.18;;;-2.10;99.90;;;;;;5028368;28;20033;-73
2022/03/01 03:08:41;;;;;;;26.17;8.90;;;-2.10;99.90;;;;;;5029387;28;20029;-73
2022/03/01 03:11:07;;;;;;;30.35;9.38;;;-2.10;99.90;;;;;;5032197;28;20087;-72
2022/03/01 03:13:33;;;;;;;23.58;8.43;;;-2.10;99.90;;;;;;5039780;28;20029;-70
2022/03/01 03:15:59;;;;;;;28.45;9.35;;;-2.10;99.90;;;;;;5025437;28;20036;-73
2022/03/01 03:18:25;;;;;;;28.92;9.48;;;-2.10;99.90;;;;;;5024626;28;20025;-73
2022/03/01 03:20:50;;;;;;;28.67;9.70;;;-2.10;99.90;;;;;;5028957;28;20200;-72
2022/03/01 03:23:16;;;;;;;29.58;8.90;;;-2.10;99.90;;;;;;5020080;28;20057;-72
2022/03/01 03:25:41;;;;;;;29.08;9.13;;;-2.10;99.90;;;;;;5038890;28;20025;-72
2022/03/01 03:28:07;;;;;;;27.75;9.75;;;-2.10;99.90;;;;;;5037602;28;20040;-72
2022/03/01 03:30:33;;;;;;;26.33;9.63;;;-2.10;99.90;;;;;;5017954;28;20041;-72
2022/03/01 03:32:59;;;;;;;24.90;9.45;;;-2.00;99.90;;;;;;5034349;28;20042;-72
2022/03/01 03:35:24;;;;;;;29.42;9.05;;;-2.00;99.90;;;;;;5022390;28;20022;-72
2022/03/01 03:37:50;;;;;;;22.50;8.23;;;-2.00;99.90;;;;;;5013326;28;20071;-73
2022/03/01 03:40:16;;;;;;;27.90;8.40;;;-2.00;99.90;;;;;;5018831;28;20095;-72
2022/03/01 03:42:44;;;;;;;27.40;8.98;;;-2.00;99.90;;;;;;5033286;28;20050;-71
2022/03/01 03:45:11;;;;;;;35.88;9.48;;;-2.00;99.90;;;;;;5025216;28;20033;-72
2022/03/01 03:47:37;;;;;;;26.40;8.50;;;-2.00;99.90;;;;;;5028672;28;20456;-71
2022/03/01 03:50:04;;;;;;;31.52;8.85;;;-2.00;99.90;;;;;;5044802;28;20041;-72
2022/03/01 03:52:30;;;;;;;25.55;9.20;;;-2.00;99.90;;;;;;5018274;28;20029;-71
2022/03/01 03:54:55;;;;;;;24.42;8.23;;;-2.10;99.90;;;;;;5027607;28;20037;-71
2022/03/01 03:57:21;;;;;;;26.52;8.60;;;-2.10;99.90;;;;;;5027193;28;20057;-73
2022/03/01 03:59:46;;;;;;;25.38;8.68;;;-2.20;99.90;;;;;;5028366;28;20052;-72
2022/03/01 04:02:12;;;;;;;23.45;8.35;;;-2.20;99.90;;;;;;5032571;28;20041;-72
2022/03/01 04:04:38;;;;;;;26.33;8.65;;;-2.20;99.90;;;;;;5027879;28;20033;-70
2022/03/01 04:07:04;;;;;;;25.10;8.50;;;-2.20;99.90;;;;;;5028092;28;20228;-72
2022/03/01 04:09:30;;;;;;;23.02;8.10;;;-2.20;99.90;;;;;;5028457;28;20112;-73
2022/03/01 04:11:55;;;;;;;28.30;8.63;;;-2.20;99.90;;;;;;5026923;28;20476;-72
2022/03/01 04:14:21;;;;;;;22.52;8.13;;;-2.10;99.90;;;;;;5029217;28;20034;-73
2022/03/01 04:16:47;;;;;;;22.70;8.88;;;-2.10;99.90;;;;;;5027572;28;20390;-72
2022/03/01 04:19:13;;;;;;;24.30;8.60;;;-2.10;99.90;;;;;;5028544;28;20079;-72
2022/03/01 04:21:39;;;;;;;26.67;8.90;;;-2.10;99.90;;;;;;5039629;28;20053;-70
2022/03/01 04:24:06;;;;;;;30.65;9.85;;;-2.10;99.90;;;;;;5044981;28;20043;-72
2022/03/01 04:26:32;;;;;;;32.00;9.60;;;-2.20;99.90;;;;;;5034640;28;20075;-71
2022/03/01 04:28:58;;;;;;;27.45;9.60;;;-2.30;99.90;;;;;;5041806;28;20646;-72
2022/03/01 04:31:23;;;;;;;28.13;9.30;;;-2.50;99.90;;;;;;5037473;28;20037;-72
2022/03/01 04:33:49;;;;;;;36.63;11.95;;;-2.50;99.90;;;;;;5038872;28;20025;-72
2022/03/01 04:36:16;;;;;;;41.20;13.93;;;-2.80;99.90;;;;;;5030263;28;20455;-72
2022/03/01 04:38:42;;;;;;;38.83;12.45;;;-2.90;99.90;;;;;;5035117;28;20053;-70
2022/03/01 04:41:09;;;;;;;31.50;10.52;;;-3.00;99.90;;;;;;5030534;28;20037;-72
2022/03/01 04:43:35;;;;;;;33.25;10.68;;;-3.20;99.90;;;;;;5031044;28;20053;-72
2022/03/01 04:46:01;;;;;;;30.95;9.93;;;-3.20;99.90;;;;;;5031491;28;20029;-72
2022/03/01 04:48:27;;;;;;;24.30;8.75;;;-3.20;99.90;;;;;;5038430;28;20037;-72
2022/03/01 04:50:53;;;;;;;27.25;9.77;;;-3.20;99.90;;;;;;5030746;28;20048;-72
2022/03/01 04:53:18;;;;;;;32.45;9.88;;;-3.20;99.90;;;;;;5031826;28;20076;-72
2022/03/01 04:55:45;;;;;;;31.73;10.70;;;-3.20;99.90;;;;;;5031213;28;20040;-72
2022/03/01 04:58:11;;;;;;;26.08;9.00;;;-3.20;99.90;;;;;;5031810;28;20033;-72
2022/03/01 05:00:37;;;;;;;29.60;8.98;;;-3.20;99.90;;;;;;5031799;28;20037;-72
2022/03/01 05:03:03;;;;;;;26.38;9.35;;;-3.20;99.90;;;;;;5031204;28;20087;-72
2022/03/01 05:05:28;;;;;;;35.75;12.05;;;-3.20;99.90;;;;;;5030848;28;20072;-72
2022/03/01 05:07:55;;;;;;;36.72;12.45;;;-3.20;99.90;;;;;;5028973;28;20037;-72
2022/03/01 05:10:21;;;;;;;28.20;10.30;;;-3.20;99.90;;;;;;5028803;28;20080;-72
2022/03/01 05:12:56;;;;;;;32.47;10.73;;;-3.10;99.90;;;;;;5028036;28;20029;-72
2022/03/01 05:15:23;;;;;;;30.45;9.45;;;-3.10;99.90;;;;;;5030466;28;20029;-72
2022/03/01 05:17:50;;;;;;;33.03;10.40;;;-3.20;99.90;;;;;;5030232;28;20676;-72
2022/03/01 05:20:17;;;;;;;32.67;11.60;;;-3.20;99.90;;;;;;5030240;28;20473;-74
2022/03/01 05:22:43;;;;;;;34.78;11.63;;;-3.10;99.90;;;;;;5029929;28;20045;-70
2022/03/01 05:25:16;;;;;;;32.25;11.40;;;-3.10;99.90;;;;;;5031394;28;20100;-72
2022/03/01 05:27:43;;;;;;;37.45;13.23;;;-3.10;99.90;;;;;;5030327;28;20116;-70
2022/03/01 05:30:12;;;;;;;35.72;11.80;;;-3.00;99.90;;;;;;5030700;28;20029;-75
2022/03/01 05:32:40;;;;;;;30.77;10.75;;;-2.90;99.90;;;;;;5029815;28;20549;-72
2022/03/01 05:35:10;;;;;;;30.02;10.10;;;-2.80;99.90;;;;;;5029766;28;20112;-73
2022/03/01 05:37:37;;;;;;;30.95;9.65;;;-2.80;99.90;;;;;;5031088;28;20068;-73
2022/03/01 05:40:04;;;;;;;32.42;9.95;;;-2.80;99.90;;;;;;5028728;28;20638;-73
2022/03/01 05:42:30;;;;;;;27.63;9.50;;;-2.80;99.90;;;;;;5029654;28;20500;-73
2022/03/01 05:44:56;;;;;;;30.42;10.23;;;-2.90;99.90;;;;;;5030585;28;20059;-73
2022/03/01 05:47:22;;;;;;;30.40;10.05;;;-2.90;99.90;;;;;;5029774;28;20030;-73
2022/03/01 05:49:48;;;;;;;28.88;10.75;;;-2.90;99.90;;;;;;5044270;28;20029;-73
2022/03/01 05:52:14;;;;;;;30.00;10.93;;;-2.90;99.90;;;;;;5049138;28;20049;-73
2022/03/01 05:54:40;;;;;;;28.10;9.82;;;-2.90;99.90;;;;;;5050839;28;20033;-73
2022/03/01 05:57:05;;;;;;;28.30;9.88;;;-3.00;99.90;;;;;;5048273;28;20639;-73
2022/03/01 05:59:31;;;;;;;32.45;9.57;;;-3.00;99.90;;;;;;5050798;28;20033;-73
2022/03/01 06:01:57;;;;;;;26.73;9.00;;;-3.00;99.90;;;;;;5049992;28;20029;-73
2022/03/01 06:04:23;;;;;;;26.63;9.45;;;-2.90;99.90;;;;;;5050564;28;20043;-73
2022/03/01 06:06:49;;;;;;;26.02;8.95;;;-2.90;99.90;;;;;;5030955;28;20033;-73
2022/03/01 06:09:14;;;;;;;29.23;9.07;;;-2.90;99.90;;;;;;5029376;28;20033;-73
2022/03/01 06:11:40;;;;;;;25.60;8.88;;;-2.80;99.90;;;;;;5029151;28;20049;-73
2022/03/01 06:14:06;;;;;;;25.85;9.25;;;-2.80;99.90;;;;;;5029770;28;20021;-73
2022/03/01 06:16:32;;;;;;;25.55;8.77;;;-2.80;99.90;;;;;;5039928;28;20416;-73
2022/03/01 06:18:57;;;;;;;25.65;9.88;;;-2.80;99.90;;;;;;5049672;28;20540;-73
2022/03/01 06:21:23;;;;;;;28.45;10.07;;;-2.80;99.90;;;;;;5050053;28;20347;-73
2022/03/01 06:23:49;;;;;;;30.15;9.93;;;-2.80;99.90;;;;;;5049545;28;20382;-73
2022/03/01 06:26:15;;;;;;;29.02;9.45;;;-2.80;99.90;;;;;;5050333;28;20051;-73
2022/03/01 06:28:41;;;;;;;21.38;8.20;;;-2.80;99.90;;;;;;5050355;28;20044;-73
2022/03/01 06:31:07;;;;;;;24.63;8.90;;;-2.70;99.90;;;;;;5040230;28;20695;-73
2022/03/01 06:33:32;;;;;;;26.10;9.43;;;-2.60;99.90;;;;;;5029752;28;20033;-73
2022/03/01 06:35:58;;;;;;;31.00;10.27;;;-2.50;99.90;;;;;;5028422;28;20036;-73
2022/03/01 06:38:24;;;;;;;32.08;11.00;;;-2.50;99.90;;;;;;5029768;28;20044;-73
2022/03/01 06:40:55;;;;;;;24.63;9.50;;;-2.40;99.90;;;;;;5029358;28;20516;-71
2022/03/01 06:43:21;;;;;;;34.83;11.27;;;-2.30;99.90;;;;;;5030054;28;20064;-73
2022/03/01 06:45:47;;;;;;;35.88;12.43;;;-2.30;99.90;;;;;;5035517;28;20029;-70
2022/03/01 06:48:13;;;;;;;33.80;11.93;;;-2.30;99.90;;;;;;5033008;28;20465;-72
2022/03/01 06:50:38;;;;;;;40.17;14.23;;;-2.50;99.90;;;;;;5029738;28;20459;-72
2022/03/01 06:53:04;;;;;;;36.38;12.73;;;-2.50;99.90;;;;;;5028722;28;20057;-72
2022/03/01 06:55:30;;;;;;;37.35;13.63;;;-2.40;99.90;;;;;;5029897;28;20033;-72
2022/03/01 06:57:56;;;;;;;34.97;11.63;;;-2.50;99.90;;;;;;5028898;28;20041;-73
2022/03/01 07:00:22;;;;;;;26.77;9.68;;;-2.60;99.90;;;;;;5029353;28;20027;-73
2022/03/01 07:02:48;;;;;;;30.83;10.25;;;-2.50;99.90;;;;;;5042252;28;20033;-70
2022/03/01 07:05:16;;;;;;;27.90;9.55;;;-2.50;99.90;;;;;;5047660;28;20028;-73
2022/03/01 07:07:42;;;;;;;32.15;11.65;;;-2.40;99.90;;;;;;5049851;28;20078;-73
2022/03/01 07:10:11;;;;;;;29.42;11.00;;;-2.30;99.90;;;;;;5046933;28;20036;-73
2022/03/01 07:12:37;;;;;;;30.35;10.60;;;-2.20;99.90;;;;;;5049543;28;20025;-74
2022/03/01 07:15:05;;;;;;;30.73;11.15;;;-2.20;99.90;;;;;;5031197;28;20034;-73
2022/03/01 07:17:30;;;;;;;26.40;10.88;;;-2.10;99.90;;;;;;5022497;28;20061;-74
2022/03/01 07:19:56;;;;;;;26.10;9.98;;;-2.00;99.90;;;;;;5028554;28;20061;-74
2022/03/01 07:22:22;;;;;;;29.83;8.82;;;-2.00;99.90;;;;;;5029124;28;20124;-73
2022/03/01 07:24:47;;;;;;;21.67;8.32;;;-1.80;99.90;;;;;;5039178;28;20033;-72
2022/03/01 07:27:13;;;;;;;28.42;9.02;;;-1.70;99.90;;;;;;5032854;28;20022;-73
2022/03/01 07:29:40;;;;;;;28.35;9.30;;;-1.60;99.90;;;;;;5029036;28;20386;-74
2022/03/01 07:32:06;;;;;;;23.08;8.65;;;-1.50;99.90;;;;;;5028374;28;20140;-73
2022/03/01 07:34:33;;;;;;;22.10;8.50;;;-1.40;99.90;;;;;;5029206;28;20460;-74
2022/03/01 07:36:59;;;;;;;31.20;9.57;;;-1.40;99.90;;;;;;5026946;28;20033;-73
2022/03/01 07:39:25;;;;;;;30.48;10.43;;;-1.20;99.90;;;;;;5028402;28;20106;-73
2022/03/01 07:41:51;;;;;;;32.65;10.57;;;-1.20;99.90;;;;;;5023311;28;20038;-71
2022/03/01 07:44:18;;;;;;;30.65;9.82;;;-1.00;99.90;;;;;;5008843;28;20028;-74
2022/03/01 07:46:44;;;;;;;28.13;9.65;;;-1.00;99.90;;;;;;5009119;28;20034;-74
2022/03/01 07:49:10;;;;;;;24.38;9.35;;;-0.90;99.90;;;;;;5008511;28;20030;-72
2022/03/01 07:51:35;;;;;;;24.20;8.27;;;-0.80;99.90;;;;;;5008936;28;20064;-72
2022/03/01 07:54:01;;;;;;;25.10;8.05;;;-0.80;99.90;;;;;;5007240;28;20132;-72
2022/03/01 07:56:27;;;;;;;25.95;8.55;;;-0.70;99.90;;;;;;5013168;28;20639;-72
2022/03/01 07:58:53;;;;;;;28.50;10.02;;;-0.60;99.90;;;;;;5028416;28;20037;-70
2022/03/01 08:01:19;;;;;;;30.15;9.30;;;-0.50;99.90;;;;;;5028422;28;20890;-74
2022/03/01 08:03:46;;;;;;;31.98;10.68;;;-0.40;99.90;;;;;;5026383;28;20099;-72
2022/03/01 08:06:12;;;;;;;31.50;9.05;;;-0.20;99.90;;;;;;5025381;28;20067;-72
2022/03/01 08:08:37;;;;;;;29.52;9.30;;;-0.10;99.90;;;;;;5028841;28;20115;-72
2022/03/01 08:11:04;;;;;;;27.55;10.02;;;0.00;99.90;;;;;;5027824;28;20597;-73
2022/03/01 08:13:34;;;;;;;26.67;8.57;;;0.00;99.90;;;;;;5032113;28;20026;-72
2022/03/01 08:16:02;;;;;;;31.45;9.77;;;0.10;99.90;;;;;;5032142;28;20033;-74
2022/03/01 08:18:27;;;;;;;25.20;8.40;;;0.20;99.90;;;;;;5032806;28;20033;-73
2022/03/01 08:20:53;;;;;;;21.73;7.85;;;0.30;99.90;;;;;;5012220;28;20398;-71
2022/03/01 08:23:19;;;;;;;18.40;7.00;;;0.30;99.90;;;;;;5012580;28;20049;-74
2022/03/01 08:25:46;;;;;;;18.27;7.57;;;0.50;99.90;;;;;;5012857;28;20106;-74
2022/03/01 08:28:13;;;;;;;23.83;8.25;;;0.60;99.90;;;;;;5012036;28;20526;-73
2022/03/01 08:30:39;;;;;;;20.15;7.55;;;0.60;99.90;;;;;;5012805;28;20034;-73
2022/03/01 08:33:05;;;;;;;21.80;7.32;;;0.70;99.90;;;;;;5011696;28;20537;-73
2022/03/01 08:35:32;;;;;;;21.20;7.60;;;0.70;99.90;;;;;;5031308;28;20128;-72
2022/03/01 08:38:07;;;;;;;19.30;7.50;;;0.80;99.90;;;;;;5030020;28;20033;-72
2022/03/01 08:40:37;;;;;;;21.83;7.55;;;1.00;99.90;;;;;;5031850;28;20038;-72
2022/03/01 08:43:04;;;;;;;22.60;7.60;;;0.90;99.90;;;;;;5031550;28;20359;-72
2022/03/01 08:45:30;;;;;;;20.58;7.65;;;0.90;99.90;;;;;;5030917;28;20033;-72
2022/03/01 08:47:56;;;;;;;25.08;8.10;;;0.90;99.90;;;;;;5031761;28;20033;-70
2022/03/01 08:50:21;;;;;;;24.02;8.10;;;0.90;99.90;;;;;;5031990;28;20035;-72
2022/03/01 08:52:49;;;;;;;20.63;7.57;;;1.10;99.90;;;;;;5030155;28;20049;-72
2022/03/01 08:55:14;;;;;;;23.40;7.80;;;1.10;99.90;;;;;;5031295;28;20052;-72
2022/03/01 08:57:40;;;;;;;19.98;7.93;;;1.30;99.90;;;;;;5032050;28;20441;-71
2022/03/01 09:00:09;;;;;;;20.70;7.65;;;1.50;99.90;;;;;;5031028;28;20029;-72
2022/03/01 09:02:35;;;;;;;22.63;7.63;;;1.50;99.90;;;;;;5030590;28;20468;-72
2022/03/01 09:05:01;;;;;;;19.95;7.50;;;1.60;99.90;;;;;;5031392;28;20029;-72
2022/03/01 09:07:26;;;;;;;21.77;8.00;;;1.90;99.90;;;;;;5023317;28;20034;-72
2022/03/01 09:09:52;;;;;;;21.48;7.47;;;1.90;99.90;;;;;;5012206;28;20032;-72
2022/03/01 09:12:18;;;;;;;21.55;7.22;;;1.80;99.90;;;;;;5011346;28;20827;-72
2022/03/01 09:14:44;;;;;;;19.88;7.47;;;1.90;99.90;;;;;;5029162;28;20041;-72
2022/03/01 09:17:10;;;;;;;22.13;8.10;;;2.10;99.90;;;;;;5031120;28;20484;-72
2022/03/01 09:19:36;;;;;;;20.23;7.10;;;2.10;99.90;;;;;;5031136;28;20033;-72
2022/03/01 09:22:02;;;;;;;18.25;6.93;;;2.10;98.80;;;;;;5029698;28;20132;-72
2022/03/01 09:24:28;;;;;;;18.17;7.20;;;2.20;99.10;;;;;;5031256;28;20037;-72
2022/03/01 09:26:55;;;;;;;17.38;7.10;;;2.20;98.40;;;;;;5028806;28;20044;-72
2022/03/01 09:29:21;;;;;;;19.65;7.07;;;2.40;99.90;;;;;;5030733;28;20120;-72
2022/03/01 09:31:47;;;;;;;18.77;7.90;;;2.60;99.90;;;;;;5029951;28;20132;-72
2022/03/01 09:34:12;;;;;;;20.35;7.78;;;2.80;99.20;;;;;;5030490;28;20033;-72
2022/03/01 09:36:38;;;;;;;21.23;7.43;;;3.00;97.00;;;;;;5031178;28;20175;-73
2022/03/01 09:39:04;;;;;;;26.00;8.65;;;3.00;96.70;;;;;;5030431;28;20034;-72
2022/03/01 09:41:33;;;;;;;22.17;7.90;;;3.10;94.90;;;;;;5030956;28;20087;-72
2022/03/01 09:43:59;;;;;;;18.20;6.97;;;3.20;95.30;;;;;;5019199;28;20030;-71
2022/03/01 09:46:25;;;;;;;22.38;7.93;;;3.40;93.70;;;;;;5010921;28;20037;-72
2022/03/01 09:48:50;;;;;;;18.20;7.22;;;3.50;94.00;;;;;;5011191;28;20460;-72
2022/03/01 09:51:18;;;;;;;20.98;7.70;;;3.60;93.00;;;;;;5010363;28;20863;-72
2022/03/01 09:53:46;;;;;;;18.88;6.60;;;3.60;92.40;;;;;;5010939;28;20060;-72
2022/03/01 09:56:13;;;;;;;18.17;7.50;;;3.80;93.90;;;;;;5017123;28;20446;-72
2022/03/01 09:58:39;;;;;;;19.13;7.15;;;4.00;91.00;;;;;;5030779;28;20494;-72
2022/03/01 10:01:05;;;;;;;22.52;7.88;;;4.00;91.80;;;;;;5030230;28;20035;-69
2022/03/01 10:03:35;;;;;;;20.50;7.55;;;4.10;88.30;;;;;;5031350;28;20029;-72
2022/03/01 10:06:09;;;;;;;14.52;5.93;;;4.10;85.80;;;;;;5030188;28;20021;-69
2022/03/01 10:08:35;;;;;;;19.27;7.45;;;4.10;87.40;;;;;;5020407;28;20061;-71
2022/03/01 10:11:00;;;;;;;19.70;7.35;;;4.50;82.30;;;;;;5010623;28;20338;-69
2022/03/01 10:13:28;;;;;;;18.90;7.32;;;4.70;83.80;;;;;;5010529;28;20428;-71
2022/03/01 10:16:15;;;;;;;25.33;7.63;;;4.80;77.90;;;;;;5010628;28;20033;-70
2022/03/01 10:18:56;;;;;;;15.25;6.25;;;5.00;83.60;;;;;;5010852;28;20042;-70
2022/03/01 10:21:24;;;;;;;17.08;6.57;;;5.20;72.60;;;;;;5009450;28;20042;-71
2022/03/01 10:23:55;;;;;;;19.90;6.80;;;5.50;70.20;;;;;;5013203;28;20030;-72
2022/03/01 10:26:29;;;;;;;19.67;7.85;;;5.60;67.80;;;;;;5029359;28;20112;-71
2022/03/01 10:28:56;;;;;;;15.57;6.57;;;5.80;65.80;;;;;;5030463;28;20034;-70
2022/03/01 10:31:26;;;;;;;17.48;6.78;;;5.90;65.60;;;;;;5029259;28;20029;-71
2022/03/01 10:33:55;;;;;;;17.48;7.20;;;5.90;63.10;;;;;;5029999;28;20029;-72
2022/03/01 10:36:27;;;;;;;16.00;7.43;;;6.10;63.40;;;;;;5027557;28;20030;-71
2022/03/01 10:39:02;;;;;;;16.80;6.82;;;5.90;62.20;;;;;;5036615;28;20029;-71
2022/03/01 10:41:34;;;;;;;19.40;7.10;;;6.10;62.00;;;;;;5033328;28;20046;-70
2022/03/01 10:44:01;;;;;;;18.20;7.35;;;6.40;65.00;;;;;;5029946;28;20049;-70
2022/03/01 10:46:28;;;;;;;18.00;7.38;;;6.60;59.00;;;;;;5026487;28;20030;-71
2022/03/01 10:49:11;;;;;;;17.92;6.97;;;6.70;59.10;;;;;;5029304;28;20037;-71
2022/03/01 10:52:03;;;;;;;17.05;6.60;;;6.80;56.90;;;;;;5028560;28;20549;-68
2022/03/01 10:54:45;;;;;;;15.32;7.10;;;6.90;55.00;;;;;;5028780;28;20507;-70
2022/03/01 10:57:21;;;;;;;21.33;6.60;;;7.00;56.10;;;;;;5028453;28;20041;-69
2022/03/01 10:59:48;;;;;;;20.02;7.20;;;6.90;53.40;;;;;;5029539;28;20111;-71
2022/03/01 11:02:17;;;;;;;18.60;6.70;;;6.80;55.20;;;;;;5025764;28;20029;-69
2022/03/01 11:04:43;;;;;;;19.08;7.55;;;6.60;53.50;;;;;;5028512;28;20108;-70
2022/03/01 11:07:11;;;;;;;16.88;6.53;;;6.70;56.20;;;;;;5027246;28;20040;-70
2022/03/01 11:09:38;;;;;;;17.20;6.63;;;6.80;53.00;;;;;;5028943;28;20029;-69
2022/03/01 11:12:06;;;;;;;17.48;7.07;;;6.90;53.20;;;;;;5032470;28;20486;-67
2022/03/01 11:14:38;;;;;;;20.35;7.18;;;7.00;52.00;;;;;;5028981;28;20029;-70
2022/03/01 11:17:18;;;;;;;15.52;6.45;;;7.40;52.80;;;;;;5027680;28;20414;-67
2022/03/01 11:20:14;;;;;;;18.60;7.03;;;7.50;50.60;;;;;;5028147;28;20445;-71
2022/03/01 11:23:22;;;;;;;16.75;6.57;;;7.40;49.40;;;;;;5011570;28;20050;-71
2022/03/01 11:25:48;;;;;;;16.13;6.15;;;7.40;47.90;;;;;;4967549;28;20042;-69
2022/03/01 11:28:16;;;;;;;17.00;7.03;;;7.20;50.40;;;;;;4966573;28;20094;-70
2022/03/01 11:30:45;;;;;;;17.08;7.03;;;7.40;48.60;;;;;;4970023;28;20046;-71
2022/03/01 11:33:11;;;;;;;14.00;6.28;;;7.70;48.70;;;;;;4985820;28;20608;-71
2022/03/01 11:35:43;;;;;;;14.65;6.53;;;8.20;49.00;;;;;;4987042;28;20037;-71
2022/03/01 11:38:13;;;;;;;14.63;6.57;;;8.50;46.20;;;;;;4986263;28;20451;-71
2022/03/01 11:40:40;;;;;;;16.50;6.68;;;8.70;47.40;;;;;;4987090;28;20035;-70
2022/03/01 11:43:21;;;;;;;16.65;6.90;;;8.80;46.70;;;;;;4986390;28;20076;-66
2022/03/01 11:45:52;;;;;;;14.65;6.88;;;8.70;45.80;;;;;;4986120;28;20707;-71
2022/03/01 11:48:23;;;;;;;15.30;6.22;;;8.50;47.40;;;;;;4985986;28;20141;-71
2022/03/01 11:50:55;;;;;;;16.25;6.05;;;8.80;47.20;;;;;;4986725;28;20145;-71
2022/03/01 11:53:23;;;;;;;16.40;6.65;;;8.70;43.70;;;;;;4986008;28;20038;-71
2022/03/01 11:55:55;;;;;;;17.13;6.30;;;8.50;42.80;;;;;;4991825;28;20030;-71
2022/03/01 11:58:22;;;;;;;14.23;6.72;;;8.50;43.80;;;;;;5008347;28;20038;-71
2022/03/01 12:00:49;;;;;;;18.48;6.93;;;8.60;44.90;;;;;;5016407;28;20033;-70
2022/03/01 12:03:17;;;;;;;14.48;6.88;;;8.60;44.10;;;;;;5026303;28;20057;-69
2022/03/01 12:05:46;;;;;;;13.82;6.60;;;8.80;46.80;;;;;;5027720;28;20037;-69
2022/03/01 12:08:13;;;;;;;15.57;6.65;;;8.90;43.70;;;;;;5026108;28;20035;-69
2022/03/01 12:11:10;;;;;;;14.05;6.55;;;9.10;43.80;;;;;;5028428;28;20100;-69
2022/03/01 12:13:39;;;;;;;14.85;6.80;;;9.10;43.30;;;;;;5021372;28;20043;-69
2022/03/01 12:16:06;;;;;;;15.50;6.60;;;9.30;44.50;;;;;;5027598;28;20445;-68
2022/03/01 12:18:37;;;;;;;15.25;6.65;;;9.80;44.60;;;;;;5025748;28;20053;-69
2022/03/01 12:21:10;;;;;;;14.85;6.28;;;9.90;41.50;;;;;;5012746;28;20531;-69
2022/03/01 12:23:37;;;;;;;17.48;7.38;;;9.70;41.10;;;;;;5027191;28;20029;-70
2022/03/01 12:26:06;;;;;;;21.23;7.13;;;9.70;41.60;;;;;;5028035;28;20049;-71
2022/03/01 12:28:44;;;;;;;19.20;7.15;;;9.50;40.80;;;;;;5025166;28;20083;-70
2022/03/01 12:31:20;;;;;;;27.92;7.53;;;9.80;42.70;;;;;;5027773;28;20039;-70
2022/03/01 12:34:07;;;;;;;13.90;6.80;;;9.80;42.70;;;;;;5028464;28;20105;-71
2022/03/01 12:36:38;;;;;;;17.48;7.10;;;9.90;42.10;;;;;;5027621;28;20053;-72
2022/03/01 12:39:06;;;;;;;15.13;6.57;;;9.80;42.70;;;;;;5011805;28;20044;-71